createdAt,value
2023-02-12T00:02:15.874Z,50.93
2023-02-12T00:04:42.548Z,52.01
2023-02-12T00:07:09.242Z,51.37
2023-02-12T00:09:35.895Z,51.81
2023-02-12T00:12:02.637Z,51.39
2023-02-12T00:14:29.298Z,51.63
2023-02-12T00:16:55.938Z,51.15
2023-02-12T00:19:22.671Z,51.68
2023-02-12T00:21:49.326Z,52.08
2023-02-12T00:24:15.971Z,52.61
2023-02-12T00:26:42.672Z,52.86
2023-02-12T00:29:09.296Z,53.22
2023-02-12T00:31:36.016Z,52.13
2023-02-12T00:34:02.765Z,54.33
2023-02-12T00:36:29.386Z,54.09
2023-02-12T00:38:56.096Z,54.44
2023-02-12T00:41:22.805Z,53.22
2023-02-12T00:43:49.451Z,53.15
2023-02-12T00:46:16.180Z,53.80
2023-02-12T00:48:42.848Z,52.66
2023-02-12T00:51:09.529Z,52.75
2023-02-12T00:53:36.196Z,53.24
2023-02-12T00:56:02.864Z,53.02
2023-02-12T00:58:29.548Z,52.94
2023-02-12T01:00:56.253Z,53.10
2023-02-12T01:03:22.888Z,53.09
2023-02-12T01:05:49.558Z,52.45
2023-02-12T01:08:16.213Z,53.29
2023-02-12T01:10:42.835Z,53.41
2023-02-12T01:13:09.505Z,52.69
2023-02-12T01:15:36.164Z,52.63
2023-02-12T01:18:02.914Z,52.12
2023-02-12T01:20:29.569Z,52.76
2023-02-12T01:22:56.214Z,53.43
2023-02-12T01:25:22.831Z,52.59
2023-02-12T01:27:49.472Z,53.17
2023-02-12T01:30:16.144Z,53.68
2023-02-12T01:32:43.131Z,53.86
2023-02-12T01:35:09.783Z,53.25
2023-02-12T01:37:36.392Z,52.79
2023-02-12T01:40:03.029Z,52.69
2023-02-12T01:42:29.702Z,53.40
2023-02-12T01:44:56.426Z,52.71
2023-02-12T01:47:23.078Z,52.21
2023-02-12T01:49:49.776Z,52.23
2023-02-12T01:52:16.421Z,52.37
2023-02-12T01:54:43.113Z,52.26
2023-02-12T01:57:09.865Z,52.25
2023-02-12T01:59:36.527Z,53.14
2023-02-12T02:02:03.206Z,53.00
2023-02-12T02:04:29.906Z,53.83
2023-02-12T02:06:56.520Z,52.98
2023-02-12T02:09:23.154Z,52.50
2023-02-12T02:11:49.779Z,53.17
2023-02-12T02:14:16.436Z,52.51
2023-02-12T02:16:43.079Z,53.14
2023-02-12T02:19:09.769Z,53.07
2023-02-12T02:21:36.449Z,53.10
2023-02-12T02:24:03.059Z,53.68
2023-02-12T02:26:29.730Z,52.99
2023-02-12T02:28:56.405Z,53.71
2023-02-12T02:31:23.188Z,52.90
2023-02-12T02:33:49.995Z,54.01
2023-02-12T02:36:16.612Z,53.91
2023-02-12T02:38:43.259Z,53.75
2023-02-12T02:41:09.905Z,53.82
2023-02-12T02:43:36.539Z,54.81
2023-02-12T02:46:03.213Z,54.21
2023-02-12T02:48:29.807Z,54.37
2023-02-12T02:50:56.538Z,53.54
2023-02-12T02:53:23.144Z,54.22
2023-02-12T02:55:49.802Z,53.77
2023-02-12T02:58:16.423Z,53.13
2023-02-12T03:00:43.143Z,54.04
2023-02-12T03:03:09.838Z,53.88
2023-02-12T03:05:36.583Z,53.70
2023-02-12T03:08:05.328Z,53.84
2023-02-12T03:10:32.072Z,53.14
2023-02-12T03:12:58.751Z,53.82
2023-02-12T03:15:25.374Z,54.49
2023-02-12T03:17:52.047Z,55.07
2023-02-12T03:20:18.744Z,53.75
2023-02-12T03:22:45.462Z,54.71
2023-02-12T03:25:12.152Z,54.06
2023-02-12T03:27:38.833Z,54.16
2023-02-12T03:30:05.552Z,54.25
2023-02-12T03:32:32.216Z,54.19
2023-02-12T03:34:58.861Z,53.69
2023-02-12T03:37:25.481Z,54.72
2023-02-12T03:39:52.192Z,55.06
2023-02-12T03:42:18.841Z,54.99
2023-02-12T03:44:45.506Z,54.86
2023-02-12T03:47:12.171Z,54.53
2023-02-12T03:49:38.837Z,55.06
2023-02-12T03:52:05.499Z,55.39
2023-02-12T03:54:32.146Z,54.20
2023-02-12T03:56:58.781Z,55.23
2023-02-12T03:59:25.424Z,54.69
2023-02-12T04:01:52.179Z,54.07
2023-02-12T04:04:19.015Z,55.21
2023-02-12T04:06:45.667Z,54.82
2023-02-12T04:09:12.325Z,54.88
2023-02-12T04:11:38.950Z,54.31
2023-02-12T04:14:05.607Z,54.57
2023-02-12T04:16:33.120Z,54.22
2023-02-12T04:19:00.400Z,54.44
2023-02-12T04:21:27.078Z,54.88
2023-02-12T04:23:53.700Z,55.11
2023-02-12T04:26:20.349Z,54.76
2023-02-12T04:28:47.016Z,56.18
2023-02-12T04:31:13.765Z,56.44
2023-02-12T04:33:40.512Z,56.48
2023-02-12T04:36:07.320Z,56.51
2023-02-12T04:38:34.221Z,56.75
2023-02-12T04:41:00.897Z,57.06
2023-02-12T04:43:27.623Z,56.76
2023-02-12T04:45:54.683Z,56.63
2023-02-12T04:48:21.568Z,56.35
2023-02-12T04:50:48.251Z,56.27
2023-02-12T04:53:14.940Z,56.33
2023-02-12T04:55:41.582Z,56.75
2023-02-12T04:58:08.181Z,55.95
2023-02-12T05:00:34.805Z,55.74
2023-02-12T05:03:01.384Z,55.34
2023-02-12T05:05:28.059Z,55.84
2023-02-12T05:07:54.683Z,55.60
2023-02-12T05:10:21.387Z,55.10
2023-02-12T05:12:48.060Z,54.88
2023-02-12T05:15:14.738Z,54.39
2023-02-12T05:17:41.438Z,55.38
2023-02-12T05:20:08.079Z,54.81
2023-02-12T05:22:34.741Z,55.68
2023-02-12T05:25:01.377Z,55.45
2023-02-12T05:27:28.029Z,55.10
2023-02-12T05:29:54.732Z,55.66
2023-02-12T05:32:21.358Z,55.65
2023-02-12T05:34:47.999Z,56.65
2023-02-12T05:37:14.641Z,56.02
2023-02-12T05:39:41.341Z,56.12
2023-02-12T05:42:08.003Z,56.04
2023-02-12T05:44:34.706Z,55.74
2023-02-12T05:47:01.361Z,55.88
2023-02-12T05:49:28.028Z,55.74
2023-02-12T05:51:54.709Z,55.58
2023-02-12T05:54:21.354Z,54.87
2023-02-12T05:56:48.028Z,55.09
2023-02-12T05:59:14.720Z,55.49
2023-02-12T06:01:41.381Z,55.06
2023-02-12T06:04:08.155Z,55.36
2023-02-12T06:06:34.892Z,55.90
2023-02-12T06:09:01.577Z,55.04
2023-02-12T06:11:28.253Z,56.61
2023-02-12T06:13:54.868Z,55.96
2023-02-12T06:16:21.611Z,54.82
2023-02-12T06:18:48.294Z,54.12
2023-02-12T06:21:14.917Z,54.69
2023-02-12T06:23:41.534Z,55.06
2023-02-12T06:26:08.127Z,55.40
2023-02-12T06:28:34.889Z,55.39
2023-02-12T06:31:01.623Z,55.37
2023-02-12T06:33:28.342Z,54.65
2023-02-12T06:35:55.189Z,54.49
2023-02-12T06:38:21.987Z,54.79
2023-02-12T06:40:48.671Z,55.01
2023-02-12T06:43:15.280Z,54.80
2023-02-12T06:45:41.968Z,54.81
2023-02-12T06:48:08.638Z,55.05
2023-02-12T06:50:35.282Z,54.37
2023-02-12T06:53:01.938Z,55.53
2023-02-12T06:55:28.590Z,56.03
2023-02-12T06:57:55.286Z,54.88
2023-02-12T07:00:22.203Z,54.78
2023-02-12T07:02:48.912Z,55.03
2023-02-12T07:05:15.624Z,53.84
2023-02-12T07:07:42.317Z,53.45
2023-02-12T07:10:09.008Z,53.56
2023-02-12T07:12:35.630Z,53.92
2023-02-12T07:15:02.310Z,53.65
2023-02-12T07:17:29.001Z,54.74
2023-02-12T07:19:56.232Z,54.54
2023-02-12T07:22:22.846Z,54.04
2023-02-12T07:24:49.463Z,53.75
2023-02-12T07:27:16.099Z,53.83
2023-02-12T07:29:42.732Z,53.95
2023-02-12T07:32:09.482Z,53.19
2023-02-12T07:34:36.200Z,53.31
2023-02-12T07:37:02.865Z,53.71
2023-02-12T07:39:29.563Z,53.83
2023-02-12T07:41:56.266Z,52.91
2023-02-12T07:44:22.975Z,52.91
2023-02-12T07:46:49.641Z,52.71
2023-02-12T07:49:16.348Z,51.65
2023-02-12T07:51:43.060Z,51.02
2023-02-12T07:54:09.794Z,50.45
2023-02-12T07:56:36.463Z,49.76
2023-02-12T07:59:03.089Z,49.08
2023-02-12T08:01:29.769Z,48.38
2023-02-12T08:03:56.535Z,47.96
2023-02-12T08:06:23.247Z,48.44
2023-02-12T08:08:49.942Z,48.37
2023-02-12T08:11:16.666Z,48.59
2023-02-12T08:13:43.329Z,49.05
2023-02-12T08:16:10.069Z,48.82
2023-02-12T08:18:36.739Z,48.71
2023-02-12T08:21:03.400Z,49.08
2023-02-12T08:23:30.116Z,48.87
2023-02-12T08:25:57.220Z,49.00
2023-02-12T08:28:24.028Z,49.25
2023-02-12T08:30:50.699Z,48.97
2023-02-12T08:33:17.385Z,48.05
2023-02-12T08:35:44.001Z,47.79
2023-02-12T08:38:10.723Z,46.97
2023-02-12T08:40:37.428Z,47.45
2023-02-12T08:43:04.132Z,47.52
2023-02-12T08:45:30.825Z,47.36
2023-02-12T08:47:57.539Z,46.58
2023-02-12T08:50:24.292Z,46.24
2023-02-12T08:52:50.934Z,45.79
2023-02-12T08:55:17.525Z,45.41
2023-02-12T08:57:44.144Z,45.46
2023-02-12T09:00:10.748Z,45.79
2023-02-12T09:02:37.609Z,45.49
2023-02-12T09:05:04.338Z,45.00
2023-02-12T09:07:31.041Z,44.86
2023-02-12T09:09:57.708Z,43.98
2023-02-12T09:12:24.346Z,43.66
2023-02-12T09:14:51.035Z,43.41
2023-02-12T09:17:17.657Z,43.29
2023-02-12T09:19:44.337Z,42.31
2023-02-12T09:22:10.962Z,42.28
2023-02-12T09:24:37.638Z,41.70
2023-02-12T09:27:04.280Z,41.49
2023-02-12T09:29:31.126Z,41.07
2023-02-12T09:31:57.889Z,40.90
2023-02-12T09:34:24.542Z,40.12
2023-02-12T09:36:51.236Z,40.50
2023-02-12T09:39:17.918Z,39.22
2023-02-12T09:41:45.095Z,40.42
2023-02-12T09:44:11.727Z,39.73
2023-02-12T09:46:38.449Z,39.22
2023-02-12T09:49:05.122Z,39.30
2023-02-12T09:51:31.724Z,37.93
2023-02-12T09:53:58.391Z,37.59
2023-02-12T09:56:25.132Z,37.46
2023-02-12T09:58:51.776Z,36.97
2023-02-12T10:01:18.477Z,38.06
2023-02-12T10:03:45.249Z,37.79
2023-02-12T10:06:12.017Z,37.00
2023-02-12T10:08:38.758Z,37.22
2023-02-12T10:11:05.376Z,37.04
2023-02-12T10:13:31.970Z,37.30
2023-02-12T10:15:59.093Z,37.76
2023-02-12T10:18:25.986Z,37.12
2023-02-12T10:20:53.005Z,35.75
2023-02-12T10:23:19.761Z,35.87
2023-02-12T10:25:46.366Z,35.05
2023-02-12T10:28:13.078Z,35.50
2023-02-12T10:30:39.817Z,34.12
2023-02-12T10:33:06.470Z,34.11
2023-02-12T10:35:33.289Z,35.57
2023-02-12T10:38:00.063Z,35.09
2023-02-12T10:40:26.770Z,34.04
2023-02-12T10:42:53.546Z,33.58
2023-02-12T10:45:20.159Z,36.10
2023-02-12T10:47:46.782Z,37.07
2023-02-12T10:50:13.465Z,36.13
2023-02-12T10:52:40.178Z,36.13
2023-02-12T10:55:06.802Z,36.41
2023-02-12T10:57:33.445Z,35.49
2023-02-12T11:00:00.059Z,34.83
2023-02-12T11:02:26.706Z,34.95
2023-02-12T11:04:53.397Z,35.35
2023-02-12T11:07:20.034Z,34.25
2023-02-12T11:09:46.708Z,34.81
2023-02-12T11:12:13.329Z,34.24
2023-02-12T11:14:39.975Z,33.40
2023-02-12T11:17:06.659Z,33.02
2023-02-12T11:19:33.337Z,33.63
2023-02-12T11:21:59.984Z,34.03
2023-02-12T11:24:26.626Z,34.57
2023-02-12T11:26:53.314Z,34.99
2023-02-12T11:29:20.016Z,34.82
2023-02-12T11:31:46.809Z,35.69
2023-02-12T11:34:13.529Z,35.79
2023-02-12T11:36:40.223Z,35.35
2023-02-12T11:39:06.856Z,34.72
2023-02-12T11:41:33.554Z,35.15
2023-02-12T11:44:00.213Z,34.16
2023-02-12T11:46:26.902Z,33.64
2023-02-12T11:48:53.655Z,33.91
2023-02-12T11:51:20.272Z,34.44
2023-02-12T11:53:46.898Z,35.29
2023-02-12T11:56:13.663Z,34.56
2023-02-12T11:58:40.561Z,34.57
2023-02-12T12:01:07.258Z,35.30
2023-02-12T12:03:33.863Z,34.53
2023-02-12T12:06:00.532Z,36.11
2023-02-12T12:08:27.220Z,35.96
2023-02-12T12:10:53.886Z,35.94
2023-02-12T12:13:20.557Z,35.77
2023-02-12T12:15:47.226Z,36.04
2023-02-12T12:18:13.828Z,36.12
2023-02-12T12:20:40.484Z,35.92
2023-02-12T12:23:07.141Z,36.38
2023-02-12T12:25:33.804Z,35.95
2023-02-12T12:28:00.558Z,35.26
2023-02-12T12:30:27.260Z,34.35
2023-02-12T12:32:54.032Z,34.44
2023-02-12T12:35:20.764Z,34.82
2023-02-12T12:37:47.420Z,35.22
2023-02-12T12:40:14.088Z,34.29
2023-02-12T12:42:40.684Z,34.78
2023-02-12T12:45:07.341Z,34.60
2023-02-12T12:47:34.072Z,34.37
2023-02-12T12:50:00.939Z,34.34
2023-02-12T12:52:27.615Z,34.13
2023-02-12T12:54:54.258Z,33.17
2023-02-12T12:57:21.005Z,33.00
2023-02-12T12:59:47.654Z,32.94
2023-02-12T13:02:14.397Z,31.93
2023-02-12T13:04:41.081Z,32.50
2023-02-12T13:07:07.796Z,33.18
2023-02-12T13:09:34.476Z,34.27
2023-02-12T13:12:01.122Z,34.05
2023-02-12T13:14:27.784Z,33.55
2023-02-12T13:16:54.497Z,33.77
2023-02-12T13:19:21.214Z,33.31
2023-02-12T13:21:47.873Z,32.92
2023-02-12T13:24:14.516Z,32.24
2023-02-12T13:26:41.177Z,33.20
2023-02-12T13:29:07.905Z,32.43
2023-02-12T13:31:34.746Z,32.91
2023-02-12T13:34:01.469Z,32.66
2023-02-12T13:36:28.123Z,32.57
2023-02-12T13:38:54.718Z,32.73
2023-02-12T13:41:21.359Z,32.42
2023-02-12T13:43:47.992Z,32.20
2023-02-12T13:46:14.701Z,32.68
2023-02-12T13:48:41.398Z,32.67
2023-02-12T13:51:08.063Z,33.36
2023-02-12T13:53:34.754Z,32.90
2023-02-12T13:56:01.366Z,32.87
2023-02-12T13:58:28.036Z,32.56
2023-02-12T14:00:54.706Z,33.33
2023-02-12T14:03:21.328Z,32.45
2023-02-12T14:05:48.099Z,32.93
2023-02-12T14:08:14.803Z,33.04
2023-02-12T14:10:41.467Z,32.23
2023-02-12T14:13:08.177Z,32.25
2023-02-12T14:15:34.813Z,31.49
2023-02-12T14:18:01.494Z,31.80
2023-02-12T14:20:28.136Z,31.88
2023-02-12T14:22:54.782Z,32.38
2023-02-12T14:25:21.457Z,31.98
2023-02-12T14:27:48.130Z,32.61
2023-02-12T14:30:14.851Z,32.02
2023-02-12T14:32:41.474Z,32.54
2023-02-12T14:35:08.168Z,32.40
2023-02-12T14:37:37.509Z,32.87
2023-02-12T14:40:04.477Z,32.55
2023-02-12T14:42:31.213Z,32.87
2023-02-12T14:44:57.883Z,32.27
2023-02-12T14:47:24.572Z,32.31
2023-02-12T14:49:51.286Z,32.48
2023-02-12T14:52:18.043Z,32.33
2023-02-12T14:54:44.736Z,32.42
2023-02-12T14:57:11.454Z,31.82
2023-02-12T14:59:38.181Z,32.74
2023-02-12T15:02:04.805Z,33.21
2023-02-12T15:04:31.450Z,33.26
2023-02-12T15:06:58.087Z,33.22
2023-02-12T15:09:24.728Z,33.11
2023-02-12T15:11:51.479Z,32.69
2023-02-12T15:14:18.146Z,33.15
2023-02-12T15:16:44.807Z,33.10
2023-02-12T15:19:11.507Z,33.26
2023-02-12T15:21:38.162Z,33.36
2023-02-12T15:24:04.838Z,33.63
2023-02-12T15:26:31.504Z,33.55
2023-02-12T15:28:58.112Z,33.77
2023-02-12T15:31:24.861Z,34.13
2023-02-12T15:33:51.602Z,34.54
2023-02-12T15:36:18.272Z,34.81
2023-02-12T15:38:44.944Z,35.04
2023-02-12T15:41:11.643Z,35.11
2023-02-12T15:43:38.392Z,35.09
2023-02-12T15:46:05.019Z,35.68
2023-02-12T15:48:31.790Z,35.65
2023-02-12T15:50:58.449Z,36.08
2023-02-12T15:53:25.137Z,36.34
2023-02-12T15:55:51.862Z,36.45
2023-02-12T15:58:18.610Z,36.50
2023-02-12T16:00:45.297Z,36.58
2023-02-12T16:03:11.925Z,36.94
2023-02-12T16:05:38.568Z,37.09
2023-02-12T16:08:05.314Z,37.46
2023-02-12T16:10:32.080Z,37.70
2023-02-12T16:12:58.729Z,37.64
2023-02-12T16:15:25.402Z,37.81
2023-02-12T16:17:51.996Z,38.16
2023-02-12T16:20:18.669Z,38.38
2023-02-12T16:22:45.311Z,38.53
2023-02-12T16:25:11.977Z,38.34
2023-02-12T16:27:38.588Z,38.77
2023-02-12T16:30:05.252Z,38.93
2023-02-12T16:32:31.966Z,39.54
2023-02-12T16:34:58.660Z,40.00
2023-02-12T16:37:25.396Z,40.37
2023-02-12T16:39:52.059Z,39.92
2023-02-12T16:42:19.766Z,40.29
2023-02-12T16:44:46.521Z,40.24
2023-02-12T16:47:13.199Z,41.27
2023-02-12T16:49:41.688Z,41.39
2023-02-12T16:52:08.348Z,41.97
2023-02-12T16:54:36.930Z,41.39
2023-02-12T16:57:03.644Z,41.77
2023-02-12T16:59:30.276Z,41.48
2023-02-12T17:01:56.922Z,43.12
2023-02-12T17:04:23.624Z,42.99
2023-02-12T17:06:50.326Z,42.59
2023-02-12T17:09:17.007Z,43.07
2023-02-12T17:11:43.692Z,43.98
2023-02-12T17:14:10.391Z,43.70
2023-02-12T17:16:37.026Z,43.65
2023-02-12T17:19:03.772Z,43.82
2023-02-12T17:21:30.532Z,43.96
2023-02-12T17:23:57.213Z,43.68
2023-02-12T17:26:23.853Z,43.68
2023-02-12T17:28:50.576Z,43.72
2023-02-12T17:31:17.386Z,44.03
2023-02-12T17:33:44.177Z,44.41
2023-02-12T17:36:10.790Z,44.65
2023-02-12T17:38:37.426Z,45.11
2023-02-12T17:41:04.268Z,44.83
2023-02-12T17:43:30.950Z,44.94
2023-02-12T17:45:57.665Z,44.90
2023-02-12T17:48:24.347Z,45.50
2023-02-12T17:50:50.966Z,45.78
2023-02-12T17:53:17.610Z,46.11
2023-02-12T17:55:44.235Z,45.65
2023-02-12T17:58:10.916Z,45.89
2023-02-12T18:00:37.522Z,46.55
2023-02-12T18:03:04.197Z,46.95
2023-02-12T18:05:30.892Z,47.27
2023-02-12T18:07:57.587Z,46.59
2023-02-12T18:10:24.241Z,46.98
2023-02-12T18:12:50.899Z,47.12
2023-02-12T18:15:17.505Z,46.99
2023-02-12T18:17:44.202Z,47.21
2023-02-12T18:20:10.886Z,47.39
2023-02-12T18:22:37.581Z,46.94
2023-02-12T18:25:04.266Z,47.08
2023-02-12T18:27:30.913Z,46.66
2023-02-12T18:29:57.573Z,47.05
2023-02-12T18:32:24.243Z,47.46
2023-02-12T18:34:50.907Z,47.52
2023-02-12T18:37:17.547Z,47.40
2023-02-12T18:39:44.188Z,47.58
2023-02-12T18:42:10.899Z,47.86
2023-02-12T18:44:37.501Z,48.78
2023-02-12T18:47:04.193Z,47.61
2023-02-12T18:49:30.856Z,47.47
2023-02-12T18:51:57.469Z,47.81
2023-02-12T18:54:24.108Z,48.74
2023-02-12T18:56:50.782Z,48.46
2023-02-12T18:59:17.454Z,49.49
2023-02-12T19:01:44.239Z,49.41
2023-02-12T19:04:10.912Z,49.31
2023-02-12T19:06:37.652Z,49.03
2023-02-12T19:09:04.340Z,48.98
2023-02-12T19:11:31.014Z,48.91
2023-02-12T19:13:58.228Z,49.74
2023-02-12T19:16:25.280Z,49.47
2023-02-12T19:18:51.951Z,49.28
2023-02-12T19:21:18.579Z,49.61
2023-02-12T19:23:45.255Z,50.44
2023-02-12T19:26:11.904Z,50.94
2023-02-12T19:28:41.351Z,51.87
2023-02-12T19:31:08.110Z,51.18
2023-02-12T19:33:34.795Z,51.40
2023-02-12T19:36:01.454Z,51.79
2023-02-12T19:38:28.100Z,50.83
2023-02-12T19:40:55.027Z,51.42
2023-02-12T19:43:21.854Z,51.14
2023-02-12T19:45:48.500Z,51.99
2023-02-12T19:48:15.122Z,52.54
2023-02-12T19:50:41.717Z,51.81
2023-02-12T19:53:08.413Z,51.77
2023-02-12T19:55:35.099Z,52.71
2023-02-12T19:58:01.775Z,52.05
2023-02-12T20:00:28.449Z,53.97
2023-02-12T20:02:55.156Z,53.11
2023-02-12T20:05:21.849Z,52.30
2023-02-12T20:07:48.656Z,52.29
2023-02-12T20:10:17.978Z,53.49
2023-02-12T20:12:44.892Z,53.75
2023-02-12T20:15:11.504Z,52.77
2023-02-12T20:17:38.103Z,53.44
2023-02-12T20:20:04.724Z,54.11
2023-02-12T20:22:31.348Z,53.01
2023-02-12T20:24:58.017Z,55.28
2023-02-12T20:27:24.669Z,55.59
2023-02-12T20:29:51.350Z,54.82
2023-02-12T20:32:17.996Z,54.16
2023-02-12T20:34:50.759Z,55.26
2023-02-12T20:37:19.704Z,54.47
2023-02-12T20:39:46.403Z,53.11
2023-02-12T20:42:13.006Z,55.20
2023-02-12T20:44:40.910Z,54.35
2023-02-12T20:47:07.566Z,53.85
2023-02-12T20:49:34.271Z,54.78
2023-02-12T20:52:00.921Z,54.49
2023-02-12T20:54:27.572Z,55.21
2023-02-12T20:56:54.214Z,54.63
2023-02-12T20:59:20.890Z,53.54
2023-02-12T21:01:47.602Z,53.82
2023-02-12T21:04:14.342Z,54.35
2023-02-12T21:06:40.961Z,53.45
2023-02-12T21:09:07.672Z,54.30
2023-02-12T21:11:34.301Z,54.05
2023-02-12T21:14:20.886Z,54.01
2023-02-12T21:16:48.085Z,53.62
2023-02-12T21:19:14.762Z,53.83
2023-02-12T21:21:41.431Z,54.27
2023-02-12T21:24:08.170Z,54.62
2023-02-12T21:26:34.839Z,54.68
2023-02-12T21:29:01.497Z,55.55
2023-02-12T21:31:28.256Z,56.11
2023-02-12T21:33:55.050Z,55.45
2023-02-12T21:36:21.661Z,55.59
2023-02-12T21:38:48.317Z,55.11
2023-02-12T21:41:14.948Z,56.08
2023-02-12T21:43:43.950Z,55.45
2023-02-12T21:46:10.768Z,55.18
2023-02-12T21:48:37.458Z,56.00
2023-02-12T21:51:04.123Z,56.37
2023-02-12T21:53:30.756Z,55.83
2023-02-12T21:55:57.833Z,56.02
2023-02-12T21:58:24.627Z,55.75
2023-02-12T22:00:51.326Z,56.01
2023-02-12T22:03:18.005Z,56.53
2023-02-12T22:05:44.688Z,56.35
2023-02-12T22:08:11.362Z,55.53
2023-02-12T22:10:38.588Z,55.77
2023-02-12T22:13:05.272Z,56.14
2023-02-12T22:15:31.945Z,56.47
2023-02-12T22:17:58.650Z,57.23
2023-02-12T22:20:25.349Z,56.94
2023-02-12T22:22:51.982Z,56.52
2023-02-12T22:25:18.671Z,55.99
2023-02-12T22:27:45.396Z,57.78
2023-02-12T22:30:12.025Z,56.80
2023-02-12T22:32:38.718Z,57.11
2023-02-12T22:35:05.477Z,56.45
2023-02-12T22:37:32.122Z,56.67
2023-02-12T22:39:58.814Z,56.95
2023-02-12T22:42:25.455Z,56.82
2023-02-12T22:44:52.095Z,56.92
2023-02-12T22:47:18.709Z,57.19
2023-02-12T22:49:45.341Z,57.07
2023-02-12T22:52:11.945Z,57.13
2023-02-12T22:54:38.604Z,57.72
2023-02-12T22:57:05.278Z,57.79
2023-02-12T22:59:31.965Z,57.25
2023-02-12T23:01:58.709Z,57.34
2023-02-12T23:04:25.426Z,56.83
2023-02-12T23:06:52.131Z,57.61
2023-02-12T23:09:18.808Z,56.39
2023-02-12T23:11:45.445Z,56.97
2023-02-12T23:14:12.116Z,57.32
2023-02-12T23:16:38.888Z,57.57
2023-02-12T23:19:05.660Z,56.73
2023-02-12T23:21:32.311Z,56.00
2023-02-12T23:23:59.093Z,56.97
2023-02-12T23:26:25.832Z,56.40
2023-02-12T23:28:52.503Z,57.36
2023-02-12T23:31:19.300Z,56.99
2023-02-12T23:33:46.062Z,57.80
2023-02-12T23:36:12.753Z,57.70
2023-02-12T23:38:39.448Z,58.00
2023-02-12T23:41:06.133Z,57.64
2023-02-12T23:43:32.831Z,58.28
2023-02-12T23:45:59.507Z,57.87
2023-02-12T23:48:26.113Z,57.06
2023-02-12T23:50:52.743Z,57.68
2023-02-12T23:53:19.427Z,58.61
2023-02-12T23:55:46.091Z,58.35
2023-02-12T23:58:12.698Z,58.03
